sensor_id;sensor_type;location;lat;lon;timestamp;temperature;humidity
5394;DHT22;2720;52.396;10.064;2022-08-21T00:01:51;15.00;99.90
5394;DHT22;2720;52.396;10.064;2022-08-21T00:04:19;14.90;99.90
5394;DHT22;2720;52.396;10.064;2022-08-21T00:06:46;14.90;99.90
5394;DHT22;2720;52.396;10.064;2022-08-21T00:09:13;14.80;99.90
5394;DHT22;2720;52.396;10.064;2022-08-21T00:11:42;14.80;99.90
5394;DHT22;2720;52.396;10.064;2022-08-21T00:14:14;14.80;99.90
5394;DHT22;2720;52.396;10.064;2022-08-21T00:16:41;14.80;99.90
5394;DHT22;2720;52.396;10.064;2022-08-21T00:19:08;14.80;99.90
5394;DHT22;2720;52.396;10.064;2022-08-21T00:21:35;14.80;99.90
5394;DHT22;2720;52.396;10.064;2022-08-21T00:24:03;14.80;99.90
5394;DHT22;2720;52.396;10.064;2022-08-21T00:26:30;14.80;99.90
5394;DHT22;2720;52.396;10.064;2022-08-21T00:28:58;14.80;99.90
5394;DHT22;2720;52.396;10.064;2022-08-21T00:31:25;14.70;99.90
5394;DHT22;2720;52.396;10.064;2022-08-21T00:33:52;14.70;99.90
5394;DHT22;2720;52.396;10.064;2022-08-21T00:36:19;14.70;99.90
5394;DHT22;2720;52.396;10.064;2022-08-21T00:38:46;14.60;99.90
5394;DHT22;2720;52.396;10.064;2022-08-21T00:41:13;14.60;99.90
5394;DHT22;2720;52.396;10.064;2022-08-21T00:43:40;14.70;99.90
5394;DHT22;2720;52.396;10.064;2022-08-21T00:46:09;14.60;99.90
5394;DHT22;2720;52.396;10.064;2022-08-21T00:48:36;14.50;99.90
5394;DHT22;2720;52.396;10.064;2022-08-21T00:51:05;14.40;99.90
5394;DHT22;2720;52.396;10.064;2022-08-21T00:53:33;14.40;99.90
5394;DHT22;2720;52.396;10.064;2022-08-21T00:56:02;14.30;99.90
5394;DHT22;2720;52.396;10.064;2022-08-21T00:58:31;14.30;99.90
5394;DHT22;2720;52.396;10.064;2022-08-21T01:01:03;14.30;99.90
5394;DHT22;2720;52.396;10.064;2022-08-21T01:03:33;14.20;99.90
5394;DHT22;2720;52.396;10.064;2022-08-21T01:06:01;14.20;99.90
5394;DHT22;2720;52.396;10.064;2022-08-21T01:08:29;14.30;99.90
5394;DHT22;2720;52.396;10.064;2022-08-21T01:10:56;14.20;99.90
5394;DHT22;2720;52.396;10.064;2022-08-21T01:13:24;14.20;99.90
5394;DHT22;2720;52.396;10.064;2022-08-21T01:15:54;14.10;99.90
5394;DHT22;2720;52.396;10.064;2022-08-21T01:18:23;14.00;99.90
5394;DHT22;2720;52.396;10.064;2022-08-21T01:21:05;14.00;99.90
5394;DHT22;2720;52.396;10.064;2022-08-21T01:23:34;13.90;99.90
5394;DHT22;2720;52.396;10.064;2022-08-21T01:26:02;13.90;99.90
5394;DHT22;2720;52.396;10.064;2022-08-21T01:28:33;13.90;99.90
5394;DHT22;2720;52.396;10.064;2022-08-21T01:31:01;13.80;99.90
5394;DHT22;2720;52.396;10.064;2022-08-21T01:33:29;13.70;99.90
5394;DHT22;2720;52.396;10.064;2022-08-21T01:35:56;13.70;99.90
5394;DHT22;2720;52.396;10.064;2022-08-21T01:38:24;13.70;99.90
5394;DHT22;2720;52.396;10.064;2022-08-21T01:40:52;13.60;99.90
5394;DHT22;2720;52.396;10.064;2022-08-21T01:43:19;13.50;99.90
5394;DHT22;2720;52.396;10.064;2022-08-21T01:45:46;13.40;99.90
5394;DHT22;2720;52.396;10.064;2022-08-21T01:48:13;13.40;99.90
5394;DHT22;2720;52.396;10.064;2022-08-21T01:50:40;13.40;99.90
5394;DHT22;2720;52.396;10.064;2022-08-21T01:53:07;13.40;99.90
5394;DHT22;2720;52.396;10.064;2022-08-21T01:55:35;13.30;99.90
5394;DHT22;2720;52.396;10.064;2022-08-21T01:58:02;13.30;99.90
5394;DHT22;2720;52.396;10.064;2022-08-21T02:00:29;13.30;99.90
5394;DHT22;2720;52.396;10.064;2022-08-21T02:02:56;13.30;99.90
5394;DHT22;2720;52.396;10.064;2022-08-21T02:05:23;13.20;99.90
5394;DHT22;2720;52.396;10.064;2022-08-21T02:07:52;13.20;99.90
5394;DHT22;2720;52.396;10.064;2022-08-21T02:10:22;13.20;99.90
5394;DHT22;2720;52.396;10.064;2022-08-21T02:12:50;13.20;99.90
5394;DHT22;2720;52.396;10.064;2022-08-21T02:15:18;13.20;99.90
5394;DHT22;2720;52.396;10.064;2022-08-21T02:17:48;13.10;99.90
5394;DHT22;2720;52.396;10.064;2022-08-21T02:20:18;13.10;99.90
5394;DHT22;2720;52.396;10.064;2022-08-21T02:22:45;13.10;99.90
5394;DHT22;2720;52.396;10.064;2022-08-21T02:25:12;13.00;99.90
5394;DHT22;2720;52.396;10.064;2022-08-21T02:27:40;13.10;99.90
5394;DHT22;2720;52.396;10.064;2022-08-21T02:30:11;13.00;99.90
5394;DHT22;2720;52.396;10.064;2022-08-21T02:32:39;13.00;99.90
5394;DHT22;2720;52.396;10.064;2022-08-21T02:35:07;13.00;99.90
5394;DHT22;2720;52.396;10.064;2022-08-21T02:37:41;13.00;99.90
5394;DHT22;2720;52.396;10.064;2022-08-21T02:40:09;13.00;99.90
5394;DHT22;2720;52.396;10.064;2022-08-21T02:42:37;13.00;99.90
5394;DHT22;2720;52.396;10.064;2022-08-21T02:45:04;13.00;99.90
5394;DHT22;2720;52.396;10.064;2022-08-21T02:47:33;12.90;99.90
5394;DHT22;2720;52.396;10.064;2022-08-21T02:50:00;13.00;99.90
5394;DHT22;2720;52.396;10.064;2022-08-21T02:52:27;12.90;99.90
5394;DHT22;2720;52.396;10.064;2022-08-21T02:54:54;12.80;99.90
5394;DHT22;2720;52.396;10.064;2022-08-21T02:57:21;12.90;99.90
5394;DHT22;2720;52.396;10.064;2022-08-21T02:59:48;12.80;99.90
5394;DHT22;2720;52.396;10.064;2022-08-21T03:02:15;12.70;99.90
5394;DHT22;2720;52.396;10.064;2022-08-21T03:04:44;12.80;99.90
5394;DHT22;2720;52.396;10.064;2022-08-21T03:07:11;12.80;99.90
5394;DHT22;2720;52.396;10.064;2022-08-21T03:09:38;12.70;99.90
5394;DHT22;2720;52.396;10.064;2022-08-21T03:12:05;12.70;99.90
5394;DHT22;2720;52.396;10.064;2022-08-21T03:14:32;12.70;99.90
5394;DHT22;2720;52.396;10.064;2022-08-21T03:16:59;12.60;99.90
5394;DHT22;2720;52.396;10.064;2022-08-21T03:19:26;12.60;99.90
5394;DHT22;2720;52.396;10.064;2022-08-21T03:21:54;12.60;99.90
5394;DHT22;2720;52.396;10.064;2022-08-21T03:24:21;12.60;99.90
5394;DHT22;2720;52.396;10.064;2022-08-21T03:26:48;12.60;99.90
5394;DHT22;2720;52.396;10.064;2022-08-21T03:29:15;12.50;99.90
5394;DHT22;2720;52.396;10.064;2022-08-21T03:31:42;12.60;99.90
5394;DHT22;2720;52.396;10.064;2022-08-21T03:34:09;12.50;99.90
5394;DHT22;2720;52.396;10.064;2022-08-21T03:36:36;12.50;99.90
5394;DHT22;2720;52.396;10.064;2022-08-21T03:39:04;12.50;99.90
5394;DHT22;2720;52.396;10.064;2022-08-21T03:41:32;12.50;99.90
5394;DHT22;2720;52.396;10.064;2022-08-21T03:43:59;12.50;99.90
5394;DHT22;2720;52.396;10.064;2022-08-21T03:46:26;12.40;99.90
5394;DHT22;2720;52.396;10.064;2022-08-21T03:48:52;12.40;99.90
5394;DHT22;2720;52.396;10.064;2022-08-21T03:51:20;12.40;99.90
5394;DHT22;2720;52.396;10.064;2022-08-21T03:53:47;12.40;99.90
5394;DHT22;2720;52.396;10.064;2022-08-21T03:56:16;12.30;99.90
5394;DHT22;2720;52.396;10.064;2022-08-21T03:58:43;12.30;99.90
5394;DHT22;2720;52.396;10.064;2022-08-21T04:01:10;12.40;99.90
5394;DHT22;2720;52.396;10.064;2022-08-21T04:03:38;12.50;99.90
5394;DHT22;2720;52.396;10.064;2022-08-21T04:06:06;12.50;99.90
5394;DHT22;2720;52.396;10.064;2022-08-21T04:08:34;12.50;99.90
5394;DHT22;2720;52.396;10.064;2022-08-21T04:11:01;12.60;99.90
5394;DHT22;2720;52.396;10.064;2022-08-21T04:13:30;12.60;99.90
5394;DHT22;2720;52.396;10.064;2022-08-21T04:15:57;12.70;99.90
5394;DHT22;2720;52.396;10.064;2022-08-21T04:18:24;12.70;99.90
5394;DHT22;2720;52.396;10.064;2022-08-21T04:20:52;12.70;99.90
5394;DHT22;2720;52.396;10.064;2022-08-21T04:23:22;12.80;99.90
5394;DHT22;2720;52.396;10.064;2022-08-21T04:25:50;12.70;99.90
5394;DHT22;2720;52.396;10.064;2022-08-21T04:28:17;12.80;99.90
5394;DHT22;2720;52.396;10.064;2022-08-21T04:30:45;12.70;99.90
5394;DHT22;2720;52.396;10.064;2022-08-21T04:33:13;12.80;99.90
5394;DHT22;2720;52.396;10.064;2022-08-21T04:35:40;12.80;99.90
5394;DHT22;2720;52.396;10.064;2022-08-21T04:38:07;12.80;99.90
5394;DHT22;2720;52.396;10.064;2022-08-21T04:40:34;12.80;99.90
5394;DHT22;2720;52.396;10.064;2022-08-21T04:43:03;12.80;99.90
5394;DHT22;2720;52.396;10.064;2022-08-21T04:45:32;12.70;99.90
5394;DHT22;2720;52.396;10.064;2022-08-21T04:48:03;12.70;99.90
5394;DHT22;2720;52.396;10.064;2022-08-21T04:50:47;12.70;99.90
5394;DHT22;2720;52.396;10.064;2022-08-21T04:53:18;12.80;99.90
5394;DHT22;2720;52.396;10.064;2022-08-21T04:55:47;13.10;99.90
5394;DHT22;2720;52.396;10.064;2022-08-21T04:58:17;13.20;99.90
5394;DHT22;2720;52.396;10.064;2022-08-21T05:00:46;13.30;99.90
5394;DHT22;2720;52.396;10.064;2022-08-21T05:03:19;13.40;99.90
5394;DHT22;2720;52.396;10.064;2022-08-21T05:05:47;13.60;99.90
5394;DHT22;2720;52.396;10.064;2022-08-21T05:08:17;13.80;99.90
5394;DHT22;2720;52.396;10.064;2022-08-21T05:10:44;13.90;99.90
5394;DHT22;2720;52.396;10.064;2022-08-21T05:13:12;14.00;99.90
5394;DHT22;2720;52.396;10.064;2022-08-21T05:15:39;14.10;99.90
5394;DHT22;2720;52.396;10.064;2022-08-21T05:18:07;14.20;99.90
5394;DHT22;2720;52.396;10.064;2022-08-21T05:20:36;14.40;99.90
5394;DHT22;2720;52.396;10.064;2022-08-21T05:23:07;14.40;99.90
5394;DHT22;2720;52.396;10.064;2022-08-21T05:25:34;14.50;99.90
5394;DHT22;2720;52.396;10.064;2022-08-21T05:28:02;14.60;99.90
5394;DHT22;2720;52.396;10.064;2022-08-21T05:30:29;14.80;99.90
5394;DHT22;2720;52.396;10.064;2022-08-21T05:32:58;14.90;99.90
5394;DHT22;2720;52.396;10.064;2022-08-21T05:35:26;15.00;99.90
5394;DHT22;2720;52.396;10.064;2022-08-21T05:37:55;15.10;99.90
5394;DHT22;2720;52.396;10.064;2022-08-21T05:40:22;15.20;99.90
5394;DHT22;2720;52.396;10.064;2022-08-21T05:42:50;15.20;99.90
5394;DHT22;2720;52.396;10.064;2022-08-21T05:45:17;15.30;99.90
5394;DHT22;2720;52.396;10.064;2022-08-21T05:47:44;15.30;99.90
5394;DHT22;2720;52.396;10.064;2022-08-21T05:50:11;15.40;99.90
5394;DHT22;2720;52.396;10.064;2022-08-21T05:52:38;15.50;99.90
5394;DHT22;2720;52.396;10.064;2022-08-21T05:55:07;15.60;99.90
5394;DHT22;2720;52.396;10.064;2022-08-21T05:57:34;15.70;99.90
5394;DHT22;2720;52.396;10.064;2022-08-21T06:00:04;15.70;99.90
5394;DHT22;2720;52.396;10.064;2022-08-21T06:02:31;15.70;99.90
5394;DHT22;2720;52.396;10.064;2022-08-21T06:04:58;15.70;99.90
5394;DHT22;2720;52.396;10.064;2022-08-21T06:07:25;15.80;99.90
5394;DHT22;2720;52.396;10.064;2022-08-21T06:09:51;15.90;99.90
5394;DHT22;2720;52.396;10.064;2022-08-21T06:12:20;16.00;99.90
5394;DHT22;2720;52.396;10.064;2022-08-21T06:14:47;16.00;99.90
5394;DHT22;2720;52.396;10.064;2022-08-21T06:17:16;16.10;99.90
5394;DHT22;2720;52.396;10.064;2022-08-21T06:19:43;16.20;99.90
5394;DHT22;2720;52.396;10.064;2022-08-21T06:22:10;16.10;99.90
5394;DHT22;2720;52.396;10.064;2022-08-21T06:24:37;16.20;99.90
5394;DHT22;2720;52.396;10.064;2022-08-21T06:27:04;16.40;99.90
5394;DHT22;2720;52.396;10.064;2022-08-21T06:29:34;16.40;99.90
5394;DHT22;2720;52.396;10.064;2022-08-21T06:32:03;16.50;99.90
5394;DHT22;2720;52.396;10.064;2022-08-21T06:34:30;16.60;99.90
5394;DHT22;2720;52.396;10.064;2022-08-21T06:36:57;16.70;99.90
5394;DHT22;2720;52.396;10.064;2022-08-21T06:39:24;16.80;99.90
5394;DHT22;2720;52.396;10.064;2022-08-21T06:41:51;16.80;99.90
5394;DHT22;2720;52.396;10.064;2022-08-21T06:44:18;16.90;99.90
5394;DHT22;2720;52.396;10.064;2022-08-21T06:46:47;17.10;99.90
5394;DHT22;2720;52.396;10.064;2022-08-21T06:49:14;17.00;99.90
5394;DHT22;2720;52.396;10.064;2022-08-21T06:51:41;17.10;99.90
5394;DHT22;2720;52.396;10.064;2022-08-21T06:54:08;17.10;99.90
5394;DHT22;2720;52.396;10.064;2022-08-21T06:56:38;17.10;99.90
5394;DHT22;2720;52.396;10.064;2022-08-21T06:59:05;17.10;99.90
5394;DHT22;2720;52.396;10.064;2022-08-21T07:01:32;17.10;99.90
5394;DHT22;2720;52.396;10.064;2022-08-21T07:04:01;17.10;99.90
5394;DHT22;2720;52.396;10.064;2022-08-21T07:06:27;17.10;99.90
5394;DHT22;2720;52.396;10.064;2022-08-21T07:08:55;17.10;99.90
5394;DHT22;2720;52.396;10.064;2022-08-21T07:11:23;17.00;99.90
5394;DHT22;2720;52.396;10.064;2022-08-21T07:13:51;16.90;99.90
5394;DHT22;2720;52.396;10.064;2022-08-21T07:16:20;17.00;99.90
5394;DHT22;2720;52.396;10.064;2022-08-21T07:18:47;17.00;99.90
5394;DHT22;2720;52.396;10.064;2022-08-21T07:21:16;16.90;99.90
5394;DHT22;2720;52.396;10.064;2022-08-21T07:23:45;16.90;99.90
5394;DHT22;2720;52.396;10.064;2022-08-21T07:26:13;17.00;99.90
5394;DHT22;2720;52.396;10.064;2022-08-21T07:28:41;17.20;99.90
5394;DHT22;2720;52.396;10.064;2022-08-21T07:31:09;17.40;99.90
5394;DHT22;2720;52.396;10.064;2022-08-21T07:33:39;17.50;99.90
5394;DHT22;2720;52.396;10.064;2022-08-21T07:36:07;17.70;99.90
5394;DHT22;2720;52.396;10.064;2022-08-21T07:38:35;17.90;99.90
5394;DHT22;2720;52.396;10.064;2022-08-21T07:41:06;18.10;99.90
5394;DHT22;2720;52.396;10.064;2022-08-21T07:43:38;18.10;99.90
5394;DHT22;2720;52.396;10.064;2022-08-21T07:46:05;18.10;99.90
5394;DHT22;2720;52.396;10.064;2022-08-21T07:48:31;18.30;99.90
5394;DHT22;2720;52.396;10.064;2022-08-21T07:51:02;18.40;99.90
5394;DHT22;2720;52.396;10.064;2022-08-21T07:53:32;18.50;99.90
5394;DHT22;2720;52.396;10.064;2022-08-21T07:56:00;18.60;99.90
5394;DHT22;2720;52.396;10.064;2022-08-21T07:58:27;18.60;99.90
5394;DHT22;2720;52.396;10.064;2022-08-21T08:00:54;18.70;99.90
5394;DHT22;2720;52.396;10.064;2022-08-21T08:03:21;18.80;99.90
5394;DHT22;2720;52.396;10.064;2022-08-21T08:05:48;18.90;99.90
5394;DHT22;2720;52.396;10.064;2022-08-21T08:08:15;19.00;99.90
5394;DHT22;2720;52.396;10.064;2022-08-21T08:10:42;19.10;99.90
5394;DHT22;2720;52.396;10.064;2022-08-21T08:13:11;19.20;99.90
5394;DHT22;2720;52.396;10.064;2022-08-21T08:15:38;19.40;99.90
5394;DHT22;2720;52.396;10.064;2022-08-21T08:18:05;19.40;99.90
5394;DHT22;2720;52.396;10.064;2022-08-21T08:20:32;19.60;99.90
5394;DHT22;2720;52.396;10.064;2022-08-21T08:23:00;19.60;99.90
5394;DHT22;2720;52.396;10.064;2022-08-21T08:25:27;19.70;99.90
5394;DHT22;2720;52.396;10.064;2022-08-21T08:27:54;19.70;99.90
5394;DHT22;2720;52.396;10.064;2022-08-21T08:30:23;19.80;99.90
5394;DHT22;2720;52.396;10.064;2022-08-21T08:32:50;19.90;99.90
5394;DHT22;2720;52.396;10.064;2022-08-21T08:35:17;19.90;99.90
5394;DHT22;2720;52.396;10.064;2022-08-21T08:37:44;20.00;99.90
5394;DHT22;2720;52.396;10.064;2022-08-21T08:40:14;20.10;99.90
5394;DHT22;2720;52.396;10.064;2022-08-21T08:42:45;20.10;99.90
5394;DHT22;2720;52.396;10.064;2022-08-21T08:45:16;20.20;99.90
5394;DHT22;2720;52.396;10.064;2022-08-21T08:47:49;20.20;99.90
5394;DHT22;2720;52.396;10.064;2022-08-21T08:50:25;20.30;99.90
5394;DHT22;2720;52.396;10.064;2022-08-21T08:52:57;20.40;99.90
5394;DHT22;2720;52.396;10.064;2022-08-21T08:55:31;20.50;99.90
5394;DHT22;2720;52.396;10.064;2022-08-21T08:58:01;20.60;99.90
5394;DHT22;2720;52.396;10.064;2022-08-21T09:00:29;20.70;99.90
5394;DHT22;2720;52.396;10.064;2022-08-21T09:03:00;20.80;99.90
5394;DHT22;2720;52.396;10.064;2022-08-21T09:05:30;20.90;99.90
5394;DHT22;2720;52.396;10.064;2022-08-21T09:08:26;21.00;99.90
5394;DHT22;2720;52.396;10.064;2022-08-21T09:11:02;21.10;99.90
5394;DHT22;2720;52.396;10.064;2022-08-21T09:13:43;21.30;99.90
5394;DHT22;2720;52.396;10.064;2022-08-21T09:16:19;21.30;99.90
5394;DHT22;2720;52.396;10.064;2022-08-21T09:18:57;21.40;99.90
5394;DHT22;2720;52.396;10.064;2022-08-21T09:21:31;21.40;99.90
5394;DHT22;2720;52.396;10.064;2022-08-21T09:24:12;21.50;99.90
5394;DHT22;2720;52.396;10.064;2022-08-21T09:26:49;21.60;99.90
5394;DHT22;2720;52.396;10.064;2022-08-21T09:29:21;21.70;99.90
5394;DHT22;2720;52.396;10.064;2022-08-21T09:31:49;21.80;99.90
5394;DHT22;2720;52.396;10.064;2022-08-21T09:34:27;21.90;99.90
5394;DHT22;2720;52.396;10.064;2022-08-21T09:36:56;22.00;99.90
5394;DHT22;2720;52.396;10.064;2022-08-21T09:39:26;22.10;99.90
5394;DHT22;2720;52.396;10.064;2022-08-21T09:42:01;22.20;99.90
5394;DHT22;2720;52.396;10.064;2022-08-21T09:44:31;22.20;99.90
5394;DHT22;2720;52.396;10.064;2022-08-21T09:46:59;22.30;99.90
5394;DHT22;2720;52.396;10.064;2022-08-21T09:49:29;22.50;99.90
5394;DHT22;2720;52.396;10.064;2022-08-21T09:51:57;22.60;99.90
5394;DHT22;2720;52.396;10.064;2022-08-21T09:54:29;22.70;99.90
5394;DHT22;2720;52.396;10.064;2022-08-21T09:56:59;22.80;99.90
5394;DHT22;2720;52.396;10.064;2022-08-21T09:59:45;22.90;99.90
5394;DHT22;2720;52.396;10.064;2022-08-21T10:02:26;23.00;99.90
5394;DHT22;2720;52.396;10.064;2022-08-21T10:04:56;23.00;99.90
5394;DHT22;2720;52.396;10.064;2022-08-21T10:07:27;23.10;99.90
5394;DHT22;2720;52.396;10.064;2022-08-21T10:10:03;23.20;99.90
5394;DHT22;2720;52.396;10.064;2022-08-21T10:12:38;23.20;99.90
5394;DHT22;2720;52.396;10.064;2022-08-21T10:15:15;23.20;99.90
5394;DHT22;2720;52.396;10.064;2022-08-21T10:17:47;23.20;99.90
5394;DHT22;2720;52.396;10.064;2022-08-21T10:20:20;23.20;99.90
5394;DHT22;2720;52.396;10.064;2022-08-21T10:23:00;23.20;99.90
5394;DHT22;2720;52.396;10.064;2022-08-21T10:25:35;23.30;99.90
5394;DHT22;2720;52.396;10.064;2022-08-21T10:28:12;23.30;99.90
5394;DHT22;2720;52.396;10.064;2022-08-21T10:30:46;23.40;99.90
5394;DHT22;2720;52.396;10.064;2022-08-21T10:33:22;23.50;99.90
5394;DHT22;2720;52.396;10.064;2022-08-21T10:35:58;23.60;99.90
5394;DHT22;2720;52.396;10.064;2022-08-21T10:41:48;23.80;99.90
5394;DHT22;2720;52.396;10.064;2022-08-21T10:44:23;23.90;99.90
5394;DHT22;2720;52.396;10.064;2022-08-21T10:47:00;24.00;99.90
5394;DHT22;2720;52.396;10.064;2022-08-21T10:49:39;24.00;99.90
5394;DHT22;2720;52.396;10.064;2022-08-21T10:52:23;24.10;99.90
5394;DHT22;2720;52.396;10.064;2022-08-21T10:54:57;24.30;99.90
5394;DHT22;2720;52.396;10.064;2022-08-21T10:57:32;24.40;99.90
5394;DHT22;2720;52.396;10.064;2022-08-21T11:00:05;24.50;99.90
5394;DHT22;2720;52.396;10.064;2022-08-21T11:02:38;24.40;99.90
5394;DHT22;2720;52.396;10.064;2022-08-21T11:05:11;24.40;99.90
5394;DHT22;2720;52.396;10.064;2022-08-21T11:07:46;24.30;99.90
5394;DHT22;2720;52.396;10.064;2022-08-21T11:10:20;24.00;99.90
5394;DHT22;2720;52.396;10.064;2022-08-21T11:12:52;23.90;99.90
5394;DHT22;2720;52.396;10.064;2022-08-21T11:15:31;24.10;99.90
5394;DHT22;2720;52.396;10.064;2022-08-21T11:18:18;24.60;99.90
5394;DHT22;2720;52.396;10.064;2022-08-21T11:20:54;25.30;99.90
5394;DHT22;2720;52.396;10.064;2022-08-21T11:23:29;25.70;99.90
5394;DHT22;2720;52.396;10.064;2022-08-21T11:26:02;25.90;99.90
5394;DHT22;2720;52.396;10.064;2022-08-21T11:28:37;25.90;99.90
5394;DHT22;2720;52.396;10.064;2022-08-21T11:31:16;25.50;99.90
5394;DHT22;2720;52.396;10.064;2022-08-21T11:34:00;25.20;99.90
5394;DHT22;2720;52.396;10.064;2022-08-21T11:36:36;25.20;99.90
5394;DHT22;2720;52.396;10.064;2022-08-21T11:39:15;25.50;99.90
5394;DHT22;2720;52.396;10.064;2022-08-21T11:41:48;26.20;99.90
5394;DHT22;2720;52.396;10.064;2022-08-21T11:44:24;26.90;99.90
5394;DHT22;2720;52.396;10.064;2022-08-21T11:47:00;27.70;99.90
5394;DHT22;2720;52.396;10.064;2022-08-21T11:49:42;28.30;99.90
5394;DHT22;2720;52.396;10.064;2022-08-21T11:52:16;28.80;99.90
5394;DHT22;2720;52.396;10.064;2022-08-21T11:54:49;29.30;99.90
5394;DHT22;2720;52.396;10.064;2022-08-21T11:57:23;29.70;99.30
5394;DHT22;2720;52.396;10.064;2022-08-21T11:59:55;28.90;99.50
5394;DHT22;2720;52.396;10.064;2022-08-21T12:02:28;28.40;99.90
5394;DHT22;2720;52.396;10.064;2022-08-21T12:04:59;27.90;99.50
5394;DHT22;2720;52.396;10.064;2022-08-21T12:07:34;27.60;99.90
5394;DHT22;2720;52.396;10.064;2022-08-21T12:10:05;27.90;99.90
5394;DHT22;2720;52.396;10.064;2022-08-21T12:12:34;28.10;99.90
5394;DHT22;2720;52.396;10.064;2022-08-21T12:15:23;28.50;99.90
5394;DHT22;2720;52.396;10.064;2022-08-21T12:17:59;29.40;97.70
5394;DHT22;2720;52.396;10.064;2022-08-21T12:20:35;30.20;98.30
5394;DHT22;2720;52.396;10.064;2022-08-21T12:23:12;30.80;97.50
5394;DHT22;2720;52.396;10.064;2022-08-21T12:25:43;31.00;96.00
5394;DHT22;2720;52.396;10.064;2022-08-21T12:28:12;31.00;94.30
5394;DHT22;2720;52.396;10.064;2022-08-21T12:30:43;30.80;95.80
5394;DHT22;2720;52.396;10.064;2022-08-21T12:33:21;30.50;95.20
5394;DHT22;2720;52.396;10.064;2022-08-21T12:35:49;30.50;97.00
5394;DHT22;2720;52.396;10.064;2022-08-21T12:38:18;30.70;96.40
5394;DHT22;2720;52.396;10.064;2022-08-21T12:40:52;30.70;94.50
5394;DHT22;2720;52.396;10.064;2022-08-21T12:43:24;30.40;94.80
5394;DHT22;2720;52.396;10.064;2022-08-21T12:45:52;30.00;94.40
5394;DHT22;2720;52.396;10.064;2022-08-21T12:48:23;29.60;95.20
5394;DHT22;2720;52.396;10.064;2022-08-21T12:50:53;29.40;94.30
5394;DHT22;2720;52.396;10.064;2022-08-21T12:53:28;29.30;94.60
5394;DHT22;2720;52.396;10.064;2022-08-21T12:56:01;29.10;95.50
5394;DHT22;2720;52.396;10.064;2022-08-21T12:58:30;28.60;94.50
5394;DHT22;2720;52.396;10.064;2022-08-21T13:01:01;27.80;94.40
5394;DHT22;2720;52.396;10.064;2022-08-21T13:03:29;27.10;95.00
5394;DHT22;2720;52.396;10.064;2022-08-21T13:05:58;27.40;95.90
5394;DHT22;2720;52.396;10.064;2022-08-21T13:08:26;28.10;96.50
5394;DHT22;2720;52.396;10.064;2022-08-21T13:11:00;29.10;94.60
5394;DHT22;2720;52.396;10.064;2022-08-21T13:13:29;29.50;94.80
5394;DHT22;2720;52.396;10.064;2022-08-21T13:15:58;30.20;96.30
5394;DHT22;2720;52.396;10.064;2022-08-21T13:18:28;30.70;93.30
5394;DHT22;2720;52.396;10.064;2022-08-21T13:21:04;30.70;93.50
5394;DHT22;2720;52.396;10.064;2022-08-21T13:23:32;31.00;92.50
5394;DHT22;2720;52.396;10.064;2022-08-21T13:26:01;31.10;92.00
5394;DHT22;2720;52.396;10.064;2022-08-21T13:28:38;30.50;92.20
5394;DHT22;2720;52.396;10.064;2022-08-21T13:31:08;30.20;93.20
5394;DHT22;2720;52.396;10.064;2022-08-21T13:33:38;30.40;95.00
5394;DHT22;2720;52.396;10.064;2022-08-21T13:36:11;30.70;94.30
5394;DHT22;2720;52.396;10.064;2022-08-21T13:38:42;31.00;94.40
5394;DHT22;2720;52.396;10.064;2022-08-21T13:41:22;31.40;93.40
5394;DHT22;2720;52.396;10.064;2022-08-21T13:43:57;32.00;94.40
5394;DHT22;2720;52.396;10.064;2022-08-21T13:46:27;32.50;94.10
5394;DHT22;2720;52.396;10.064;2022-08-21T13:48:55;32.80;92.80
5394;DHT22;2720;52.396;10.064;2022-08-21T13:51:23;32.40;91.30
5394;DHT22;2720;52.396;10.064;2022-08-21T13:53:52;32.00;92.20
5394;DHT22;2720;52.396;10.064;2022-08-21T13:56:26;31.70;92.10
5394;DHT22;2720;52.396;10.064;2022-08-21T13:58:55;30.90;91.90
5394;DHT22;2720;52.396;10.064;2022-08-21T14:01:26;30.60;92.20
5394;DHT22;2720;52.396;10.064;2022-08-21T14:03:57;30.10;92.20
5394;DHT22;2720;52.396;10.064;2022-08-21T14:06:27;29.60;92.20
5394;DHT22;2720;52.396;10.064;2022-08-21T14:08:57;29.10;92.50
5394;DHT22;2720;52.396;10.064;2022-08-21T14:11:27;28.60;93.40
5394;DHT22;2720;52.396;10.064;2022-08-21T14:14:01;28.20;93.80
5394;DHT22;2720;52.396;10.064;2022-08-21T14:16:42;28.40;94.20
5394;DHT22;2720;52.396;10.064;2022-08-21T14:19:18;28.40;93.70
5394;DHT22;2720;52.396;10.064;2022-08-21T14:21:46;28.40;93.70
5394;DHT22;2720;52.396;10.064;2022-08-21T14:24:25;28.90;93.80
5394;DHT22;2720;52.396;10.064;2022-08-21T14:26:56;29.10;93.00
5394;DHT22;2720;52.396;10.064;2022-08-21T14:29:26;29.00;92.90
5394;DHT22;2720;52.396;10.064;2022-08-21T14:31:56;29.40;94.70
5394;DHT22;2720;52.396;10.064;2022-08-21T14:34:25;29.80;93.40
5394;DHT22;2720;52.396;10.064;2022-08-21T14:36:53;29.90;93.80
5394;DHT22;2720;52.396;10.064;2022-08-21T14:39:21;30.00;92.70
5394;DHT22;2720;52.396;10.064;2022-08-21T14:41:49;29.50;92.30
5394;DHT22;2720;52.396;10.064;2022-08-21T14:44:18;29.10;95.10
5394;DHT22;2720;52.396;10.064;2022-08-21T14:46:46;29.00;92.70
5394;DHT22;2720;52.396;10.064;2022-08-21T14:49:14;28.60;93.00
5394;DHT22;2720;52.396;10.064;2022-08-21T14:51:41;28.50;93.00
5394;DHT22;2720;52.396;10.064;2022-08-21T14:54:09;28.00;93.30
5394;DHT22;2720;52.396;10.064;2022-08-21T14:56:36;27.60;93.90
5394;DHT22;2720;52.396;10.064;2022-08-21T14:59:07;27.30;94.60
5394;DHT22;2720;52.396;10.064;2022-08-21T15:01:37;27.60;94.50
5394;DHT22;2720;52.396;10.064;2022-08-21T15:04:04;27.90;93.70
5394;DHT22;2720;52.396;10.064;2022-08-21T15:06:31;28.10;94.20
5394;DHT22;2720;52.396;10.064;2022-08-21T15:08:58;28.40;93.70
5394;DHT22;2720;52.396;10.064;2022-08-21T15:11:27;29.00;93.80
5394;DHT22;2720;52.396;10.064;2022-08-21T15:13:56;29.70;93.30
5394;DHT22;2720;52.396;10.064;2022-08-21T15:16:24;30.20;93.60
5394;DHT22;2720;52.396;10.064;2022-08-21T15:18:52;30.00;92.70
5394;DHT22;2720;52.396;10.064;2022-08-21T15:21:20;29.90;95.00
5394;DHT22;2720;52.396;10.064;2022-08-21T15:23:47;30.00;92.70
5394;DHT22;2720;52.396;10.064;2022-08-21T15:26:14;30.30;92.20
5394;DHT22;2720;52.396;10.064;2022-08-21T15:28:41;30.30;92.20
5394;DHT22;2720;52.396;10.064;2022-08-21T15:31:08;30.20;92.80
5394;DHT22;2720;52.396;10.064;2022-08-21T15:33:35;29.90;91.90
5394;DHT22;2720;52.396;10.064;2022-08-21T15:36:03;29.60;92.50
5394;DHT22;2720;52.396;10.064;2022-08-21T15:38:30;29.10;92.50
5394;DHT22;2720;52.396;10.064;2022-08-21T15:40:57;28.60;92.40
5394;DHT22;2720;52.396;10.064;2022-08-21T15:43:26;28.20;92.70
5394;DHT22;2720;52.396;10.064;2022-08-21T15:45:53;27.70;93.20
5394;DHT22;2720;52.396;10.064;2022-08-21T15:48:21;27.30;93.00
5394;DHT22;2720;52.396;10.064;2022-08-21T15:50:48;27.30;94.50
5394;DHT22;2720;52.396;10.064;2022-08-21T15:53:16;27.70;94.00
5394;DHT22;2720;52.396;10.064;2022-08-21T15:55:43;28.30;94.10
5394;DHT22;2720;52.396;10.064;2022-08-21T15:58:13;29.00;92.80
5394;DHT22;2720;52.396;10.064;2022-08-21T16:00:41;29.50;91.90
5394;DHT22;2720;52.396;10.064;2022-08-21T16:03:12;29.70;91.50
5394;DHT22;2720;52.396;10.064;2022-08-21T16:05:42;29.60;91.50